sensor_id;sensor_type;location;lat;lon;timestamp;P1;durP1;ratioP1;P2;durP2;ratioP2
61391;SDS011;47261;52.892;5.738;2023-07-02T00:01:48;21.55;;;5.13;;
61391;SDS011;47261;52.892;5.738;2023-07-02T00:04:14;19.38;;;4.93;;
61391;SDS011;47261;52.892;5.738;2023-07-02T00:06:47;23.90;;;5.15;;
61391;SDS011;47261;52.892;5.738;2023-07-02T00:09:14;19.80;;;4.82;;
61391;SDS011;47261;52.892;5.738;2023-07-02T00:11:41;22.57;;;5.50;;
61391;SDS011;47261;52.892;5.738;2023-07-02T00:14:08;21.10;;;5.43;;
61391;SDS011;47261;52.892;5.738;2023-07-02T00:16:39;17.58;;;4.47;;
61391;SDS011;47261;52.892;5.738;2023-07-02T00:19:07;23.67;;;6.22;;
61391;SDS011;47261;52.892;5.738;2023-07-02T00:21:33;23.10;;;6.17;;
61391;SDS011;47261;52.892;5.738;2023-07-02T00:23:59;23.40;;;6.18;;
61391;SDS011;47261;52.892;5.738;2023-07-02T00:26:25;25.10;;;6.10;;
61391;SDS011;47261;52.892;5.738;2023-07-02T00:28:53;27.98;;;6.07;;
61391;SDS011;47261;52.892;5.738;2023-07-02T00:31:20;19.48;;;5.78;;
61391;SDS011;47261;52.892;5.738;2023-07-02T00:33:46;26.33;;;6.25;;
61391;SDS011;47261;52.892;5.738;2023-07-02T00:36:12;18.33;;;4.80;;
61391;SDS011;47261;52.892;5.738;2023-07-02T00:38:43;23.17;;;5.18;;
61391;SDS011;47261;52.892;5.738;2023-07-02T00:41:10;22.52;;;5.97;;
61391;SDS011;47261;52.892;5.738;2023-07-02T00:43:37;24.20;;;5.90;;
61391;SDS011;47261;52.892;5.738;2023-07-02T00:46:09;27.27;;;6.13;;
61391;SDS011;47261;52.892;5.738;2023-07-02T00:48:49;25.87;;;5.20;;
61391;SDS011;47261;52.892;5.738;2023-07-02T00:51:17;22.10;;;6.20;;
61391;SDS011;47261;52.892;5.738;2023-07-02T00:53:45;20.55;;;5.20;;
61391;SDS011;47261;52.892;5.738;2023-07-02T00:56:12;22.38;;;5.32;;
61391;SDS011;47261;52.892;5.738;2023-07-02T00:58:39;30.50;;;7.13;;
61391;SDS011;47261;52.892;5.738;2023-07-02T01:01:06;27.33;;;6.53;;
61391;SDS011;47261;52.892;5.738;2023-07-02T01:03:32;23.05;;;6.25;;
61391;SDS011;47261;52.892;5.738;2023-07-02T01:05:58;32.53;;;6.97;;
61391;SDS011;47261;52.892;5.738;2023-07-02T01:08:24;21.23;;;5.70;;
61391;SDS011;47261;52.892;5.738;2023-07-02T01:10:50;21.58;;;6.25;;
61391;SDS011;47261;52.892;5.738;2023-07-02T01:13:16;29.65;;;6.43;;
61391;SDS011;47261;52.892;5.738;2023-07-02T01:15:46;21.43;;;5.60;;
61391;SDS011;47261;52.892;5.738;2023-07-02T01:18:13;23.60;;;5.60;;
61391;SDS011;47261;52.892;5.738;2023-07-02T01:20:40;25.70;;;6.18;;
61391;SDS011;47261;52.892;5.738;2023-07-02T01:23:07;26.02;;;6.25;;
61391;SDS011;47261;52.892;5.738;2023-07-02T01:25:34;19.23;;;5.28;;
61391;SDS011;47261;52.892;5.738;2023-07-02T01:28:01;21.50;;;6.20;;
61391;SDS011;47261;52.892;5.738;2023-07-02T01:30:28;27.02;;;5.78;;
61391;SDS011;47261;52.892;5.738;2023-07-02T01:32:53;23.08;;;6.15;;
61391;SDS011;47261;52.892;5.738;2023-07-02T01:35:19;32.17;;;7.40;;
61391;SDS011;47261;52.892;5.738;2023-07-02T01:37:44;24.38;;;6.22;;
61391;SDS011;47261;52.892;5.738;2023-07-02T01:40:10;25.40;;;6.07;;
61391;SDS011;47261;52.892;5.738;2023-07-02T01:42:36;24.08;;;6.13;;
61391;SDS011;47261;52.892;5.738;2023-07-02T01:45:03;27.27;;;6.00;;
61391;SDS011;47261;52.892;5.738;2023-07-02T01:47:29;20.97;;;5.27;;
61391;SDS011;47261;52.892;5.738;2023-07-02T01:49:54;27.50;;;7.18;;
61391;SDS011;47261;52.892;5.738;2023-07-02T01:52:20;35.57;;;7.20;;
61391;SDS011;47261;52.892;5.738;2023-07-02T01:54:46;26.52;;;6.55;;
61391;SDS011;47261;52.892;5.738;2023-07-02T01:57:11;32.13;;;6.77;;
61391;SDS011;47261;52.892;5.738;2023-07-02T01:59:37;27.65;;;6.15;;
61391;SDS011;47261;52.892;5.738;2023-07-02T02:02:03;24.73;;;5.50;;
61391;SDS011;47261;52.892;5.738;2023-07-02T02:04:29;24.90;;;6.37;;
61391;SDS011;47261;52.892;5.738;2023-07-02T02:06:55;22.15;;;5.80;;
61391;SDS011;47261;52.892;5.738;2023-07-02T02:09:20;27.15;;;5.85;;
61391;SDS011;47261;52.892;5.738;2023-07-02T02:11:48;18.20;;;5.57;;
61391;SDS011;47261;52.892;5.738;2023-07-02T02:14:15;21.05;;;6.88;;
61391;SDS011;47261;52.892;5.738;2023-07-02T02:16:41;22.95;;;5.70;;
61391;SDS011;47261;52.892;5.738;2023-07-02T02:19:10;19.67;;;4.53;;
61391;SDS011;47261;52.892;5.738;2023-07-02T02:21:37;19.65;;;5.10;;
61391;SDS011;47261;52.892;5.738;2023-07-02T02:24:03;26.83;;;6.10;;
61391;SDS011;47261;52.892;5.738;2023-07-02T02:26:29;26.40;;;5.85;;
61391;SDS011;47261;52.892;5.738;2023-07-02T02:28:54;19.90;;;5.17;;
61391;SDS011;47261;52.892;5.738;2023-07-02T02:31:20;19.95;;;6.40;;
61391;SDS011;47261;52.892;5.738;2023-07-02T02:33:46;28.50;;;6.07;;
61391;SDS011;47261;52.892;5.738;2023-07-02T02:36:11;23.75;;;5.30;;
61391;SDS011;47261;52.892;5.738;2023-07-02T02:38:37;23.63;;;4.80;;
61391;SDS011;47261;52.892;5.738;2023-07-02T02:41:03;25.88;;;7.05;;
61391;SDS011;47261;52.892;5.738;2023-07-02T02:43:29;24.40;;;5.73;;
61391;SDS011;47261;52.892;5.738;2023-07-02T02:45:54;23.02;;;5.45;;
61391;SDS011;47261;52.892;5.738;2023-07-02T02:48:20;22.77;;;4.83;;
61391;SDS011;47261;52.892;5.738;2023-07-02T02:50:48;22.30;;;4.90;;
61391;SDS011;47261;52.892;5.738;2023-07-02T02:53:13;23.58;;;5.90;;
61391;SDS011;47261;52.892;5.738;2023-07-02T02:55:39;22.53;;;5.67;;
61391;SDS011;47261;52.892;5.738;2023-07-02T02:58:05;18.65;;;4.60;;
61391;SDS011;47261;52.892;5.738;2023-07-02T03:00:30;26.77;;;4.87;;
61391;SDS011;47261;52.892;5.738;2023-07-02T03:02:56;20.58;;;4.53;;
61391;SDS011;47261;52.892;5.738;2023-07-02T03:05:23;24.03;;;5.63;;
61391;SDS011;47261;52.892;5.738;2023-07-02T03:07:49;19.55;;;4.60;;
61391;SDS011;47261;52.892;5.738;2023-07-02T03:10:15;28.17;;;5.50;;
61391;SDS011;47261;52.892;5.738;2023-07-02T03:12:41;25.52;;;5.13;;
61391;SDS011;47261;52.892;5.738;2023-07-02T03:15:07;22.57;;;4.97;;
61391;SDS011;47261;52.892;5.738;2023-07-02T03:17:34;17.90;;;4.78;;
61391;SDS011;47261;52.892;5.738;2023-07-02T03:20:00;35.53;;;6.80;;
61391;SDS011;47261;52.892;5.738;2023-07-02T03:22:26;18.33;;;4.43;;
61391;SDS011;47261;52.892;5.738;2023-07-02T03:24:51;23.05;;;6.18;;
61391;SDS011;47261;52.892;5.738;2023-07-02T03:27:17;25.20;;;5.73;;
61391;SDS011;47261;52.892;5.738;2023-07-02T03:29:43;21.17;;;4.65;;
61391;SDS011;47261;52.892;5.738;2023-07-02T03:32:08;24.77;;;5.27;;
61391;SDS011;47261;52.892;5.738;2023-07-02T03:34:34;22.60;;;4.80;;
61391;SDS011;47261;52.892;5.738;2023-07-02T03:37:00;23.30;;;5.13;;
61391;SDS011;47261;52.892;5.738;2023-07-02T03:39:25;21.67;;;5.33;;
61391;SDS011;47261;52.892;5.738;2023-07-02T03:41:51;23.83;;;4.20;;
61391;SDS011;47261;52.892;5.738;2023-07-02T03:44:16;19.30;;;5.53;;
61391;SDS011;47261;52.892;5.738;2023-07-02T03:46:42;26.52;;;5.55;;
61391;SDS011;47261;52.892;5.738;2023-07-02T03:49:08;21.93;;;5.10;;
61391;SDS011;47261;52.892;5.738;2023-07-02T03:51:34;24.10;;;5.28;;
61391;SDS011;47261;52.892;5.738;2023-07-02T03:53:59;18.30;;;4.30;;
61391;SDS011;47261;52.892;5.738;2023-07-02T03:56:25;22.80;;;4.60;;
61391;SDS011;47261;52.892;5.738;2023-07-02T03:58:51;18.30;;;3.77;;
61391;SDS011;47261;52.892;5.738;2023-07-02T04:01:20;20.48;;;4.65;;
61391;SDS011;47261;52.892;5.738;2023-07-02T04:03:49;21.77;;;5.07;;
61391;SDS011;47261;52.892;5.738;2023-07-02T04:06:16;20.17;;;3.90;;
61391;SDS011;47261;52.892;5.738;2023-07-02T04:08:42;17.00;;;4.30;;
61391;SDS011;47261;52.892;5.738;2023-07-02T04:11:08;21.63;;;4.97;;
61391;SDS011;47261;52.892;5.738;2023-07-02T04:13:34;17.65;;;3.75;;
61391;SDS011;47261;52.892;5.738;2023-07-02T04:16:00;17.70;;;5.10;;
61391;SDS011;47261;52.892;5.738;2023-07-02T04:18:25;17.98;;;3.78;;
61391;SDS011;47261;52.892;5.738;2023-07-02T04:20:52;24.50;;;5.20;;
61391;SDS011;47261;52.892;5.738;2023-07-02T04:23:18;22.95;;;5.22;;
61391;SDS011;47261;52.892;5.738;2023-07-02T04:25:43;21.47;;;5.30;;
61391;SDS011;47261;52.892;5.738;2023-07-02T04:28:09;22.30;;;4.63;;
61391;SDS011;47261;52.892;5.738;2023-07-02T04:30:34;21.23;;;5.13;;
61391;SDS011;47261;52.892;5.738;2023-07-02T04:33:00;18.95;;;4.40;;
61391;SDS011;47261;52.892;5.738;2023-07-02T04:35:26;19.07;;;4.03;;
61391;SDS011;47261;52.892;5.738;2023-07-02T04:37:52;20.73;;;3.95;;
61391;SDS011;47261;52.892;5.738;2023-07-02T04:40:17;19.63;;;4.33;;
61391;SDS011;47261;52.892;5.738;2023-07-02T04:42:43;20.50;;;4.68;;
61391;SDS011;47261;52.892;5.738;2023-07-02T04:45:12;15.85;;;3.70;;
61391;SDS011;47261;52.892;5.738;2023-07-02T04:47:40;16.57;;;3.77;;
61391;SDS011;47261;52.892;5.738;2023-07-02T04:50:08;18.00;;;3.78;;
61391;SDS011;47261;52.892;5.738;2023-07-02T04:52:34;19.67;;;4.68;;
61391;SDS011;47261;52.892;5.738;2023-07-02T04:55:01;21.40;;;5.00;;
61391;SDS011;47261;52.892;5.738;2023-07-02T04:57:27;16.45;;;3.88;;
61391;SDS011;47261;52.892;5.738;2023-07-02T04:59:53;13.40;;;3.65;;
61391;SDS011;47261;52.892;5.738;2023-07-02T05:02:19;21.25;;;5.57;;
61391;SDS011;47261;52.892;5.738;2023-07-02T05:04:45;19.53;;;4.60;;
61391;SDS011;47261;52.892;5.738;2023-07-02T05:07:11;19.45;;;4.47;;
61391;SDS011;47261;52.892;5.738;2023-07-02T05:09:36;16.80;;;5.03;;
61391;SDS011;47261;52.892;5.738;2023-07-02T05:12:02;20.57;;;4.80;;
61391;SDS011;47261;52.892;5.738;2023-07-02T05:14:28;16.58;;;4.68;;
61391;SDS011;47261;52.892;5.738;2023-07-02T05:16:54;19.90;;;4.50;;
61391;SDS011;47261;52.892;5.738;2023-07-02T05:19:19;23.43;;;4.90;;
61391;SDS011;47261;52.892;5.738;2023-07-02T05:21:45;16.40;;;4.40;;
61391;SDS011;47261;52.892;5.738;2023-07-02T05:24:11;18.43;;;4.03;;
61391;SDS011;47261;52.892;5.738;2023-07-02T05:26:36;22.90;;;4.65;;
61391;SDS011;47261;52.892;5.738;2023-07-02T05:29:02;18.27;;;4.30;;
61391;SDS011;47261;52.892;5.738;2023-07-02T05:31:28;18.90;;;4.15;;
61391;SDS011;47261;52.892;5.738;2023-07-02T05:33:54;19.50;;;4.50;;
61391;SDS011;47261;52.892;5.738;2023-07-02T05:36:20;16.70;;;2.90;;
61391;SDS011;47261;52.892;5.738;2023-07-02T05:38:46;24.00;;;4.03;;
61391;SDS011;47261;52.892;5.738;2023-07-02T05:41:17;17.47;;;3.73;;
61391;SDS011;47261;52.892;5.738;2023-07-02T05:43:43;20.85;;;4.95;;
61391;SDS011;47261;52.892;5.738;2023-07-02T05:46:09;14.15;;;3.70;;
61391;SDS011;47261;52.892;5.738;2023-07-02T05:48:35;16.90;;;3.77;;
61391;SDS011;47261;52.892;5.738;2023-07-02T05:51:00;18.67;;;3.53;;
61391;SDS011;47261;52.892;5.738;2023-07-02T05:53:27;21.58;;;4.68;;
61391;SDS011;47261;52.892;5.738;2023-07-02T05:55:52;19.30;;;4.05;;
61391;SDS011;47261;52.892;5.738;2023-07-02T05:58:18;19.07;;;4.07;;
61391;SDS011;47261;52.892;5.738;2023-07-02T06:00:44;9.07;;;2.65;;
61391;SDS011;47261;52.892;5.738;2023-07-02T06:03:14;19.10;;;3.90;;
61391;SDS011;47261;52.892;5.738;2023-07-02T06:05:45;18.08;;;3.90;;
61391;SDS011;47261;52.892;5.738;2023-07-02T06:08:12;16.90;;;4.03;;
61391;SDS011;47261;52.892;5.738;2023-07-02T06:10:38;15.97;;;3.60;;
61391;SDS011;47261;52.892;5.738;2023-07-02T06:13:03;14.20;;;3.83;;
61391;SDS011;47261;52.892;5.738;2023-07-02T06:15:29;15.13;;;4.17;;
61391;SDS011;47261;52.892;5.738;2023-07-02T06:17:55;22.02;;;4.70;;
61391;SDS011;47261;52.892;5.738;2023-07-02T06:20:21;18.85;;;3.78;;
61391;SDS011;47261;52.892;5.738;2023-07-02T06:22:46;19.50;;;4.53;;
61391;SDS011;47261;52.892;5.738;2023-07-02T06:25:13;17.10;;;2.90;;
61391;SDS011;47261;52.892;5.738;2023-07-02T06:27:38;17.20;;;2.70;;
61391;SDS011;47261;52.892;5.738;2023-07-02T06:30:04;14.95;;;3.28;;
61391;SDS011;47261;52.892;5.738;2023-07-02T06:32:31;14.63;;;2.97;;
61391;SDS011;47261;52.892;5.738;2023-07-02T06:34:57;11.50;;;2.28;;
61391;SDS011;47261;52.892;5.738;2023-07-02T06:37:23;14.52;;;2.40;;
61391;SDS011;47261;52.892;5.738;2023-07-02T06:39:48;10.53;;;2.13;;
61391;SDS011;47261;52.892;5.738;2023-07-02T06:42:14;13.73;;;2.47;;
61391;SDS011;47261;52.892;5.738;2023-07-02T06:44:40;11.77;;;2.27;;
61391;SDS011;47261;52.892;5.738;2023-07-02T06:47:06;11.65;;;2.45;;
61391;SDS011;47261;52.892;5.738;2023-07-02T06:49:32;15.60;;;2.80;;
61391;SDS011;47261;52.892;5.738;2023-07-02T06:51:58;13.57;;;2.17;;
61391;SDS011;47261;52.892;5.738;2023-07-02T06:54:25;11.48;;;2.65;;
61391;SDS011;47261;52.892;5.738;2023-07-02T06:56:51;14.57;;;3.25;;
61391;SDS011;47261;52.892;5.738;2023-07-02T06:59:23;14.47;;;2.87;;
61391;SDS011;47261;52.892;5.738;2023-07-02T07:01:49;12.65;;;2.30;;
61391;SDS011;47261;52.892;5.738;2023-07-02T07:04:15;9.00;;;1.73;;
61391;SDS011;47261;52.892;5.738;2023-07-02T07:06:41;12.77;;;2.37;;
61391;SDS011;47261;52.892;5.738;2023-07-02T07:09:07;9.40;;;1.73;;
61391;SDS011;47261;52.892;5.738;2023-07-02T07:11:33;10.88;;;2.25;;
61391;SDS011;47261;52.892;5.738;2023-07-02T07:13:59;9.40;;;1.55;;
61391;SDS011;47261;52.892;5.738;2023-07-02T07:16:25;12.07;;;2.30;;
61391;SDS011;47261;52.892;5.738;2023-07-02T07:18:50;10.63;;;2.38;;
61391;SDS011;47261;52.892;5.738;2023-07-02T07:21:16;14.77;;;2.50;;
61391;SDS011;47261;52.892;5.738;2023-07-02T07:23:42;8.40;;;1.90;;
61391;SDS011;47261;52.892;5.738;2023-07-02T07:26:07;15.07;;;2.40;;
61391;SDS011;47261;52.892;5.738;2023-07-02T07:28:33;9.30;;;2.20;;
61391;SDS011;47261;52.892;5.738;2023-07-02T07:30:59;9.13;;;2.43;;
61391;SDS011;47261;52.892;5.738;2023-07-02T07:33:24;12.93;;;2.63;;
61391;SDS011;47261;52.892;5.738;2023-07-02T07:35:50;13.80;;;2.40;;
61391;SDS011;47261;52.892;5.738;2023-07-02T07:38:16;12.50;;;2.57;;
61391;SDS011;47261;52.892;5.738;2023-07-02T07:40:44;12.65;;;3.03;;
61391;SDS011;47261;52.892;5.738;2023-07-02T07:43:10;15.83;;;3.23;;
61391;SDS011;47261;52.892;5.738;2023-07-02T07:45:36;9.98;;;2.28;;
61391;SDS011;47261;52.892;5.738;2023-07-02T07:48:02;11.88;;;2.75;;
61391;SDS011;47261;52.892;5.738;2023-07-02T07:50:29;13.93;;;3.35;;
61391;SDS011;47261;52.892;5.738;2023-07-02T07:52:55;14.57;;;2.90;;
61391;SDS011;47261;52.892;5.738;2023-07-02T07:55:21;13.40;;;2.88;;
61391;SDS011;47261;52.892;5.738;2023-07-02T07:57:46;19.73;;;3.37;;
61391;SDS011;47261;52.892;5.738;2023-07-02T08:00:12;10.20;;;2.25;;
61391;SDS011;47261;52.892;5.738;2023-07-02T08:02:38;10.25;;;2.42;;
61391;SDS011;47261;52.892;5.738;2023-07-02T08:05:04;12.87;;;2.17;;
61391;SDS011;47261;52.892;5.738;2023-07-02T08:07:31;16.38;;;2.60;;
61391;SDS011;47261;52.892;5.738;2023-07-02T08:09:58;11.98;;;2.38;;
61391;SDS011;47261;52.892;5.738;2023-07-02T08:12:24;8.77;;;2.60;;
61391;SDS011;47261;52.892;5.738;2023-07-02T08:14:51;13.57;;;3.13;;
61391;SDS011;47261;52.892;5.738;2023-07-02T08:17:17;12.93;;;2.65;;
61391;SDS011;47261;52.892;5.738;2023-07-02T08:19:43;16.30;;;2.87;;
61391;SDS011;47261;52.892;5.738;2023-07-02T08:22:09;13.13;;;2.67;;
61391;SDS011;47261;52.892;5.738;2023-07-02T08:24:34;9.87;;;2.63;;
61391;SDS011;47261;52.892;5.738;2023-07-02T08:27:00;9.02;;;1.95;;
61391;SDS011;47261;52.892;5.738;2023-07-02T08:29:29;18.50;;;3.03;;
61391;SDS011;47261;52.892;5.738;2023-07-02T08:31:55;11.70;;;2.30;;
61391;SDS011;47261;52.892;5.738;2023-07-02T08:34:21;13.32;;;2.63;;
61391;SDS011;47261;52.892;5.738;2023-07-02T08:36:47;10.63;;;2.30;;
61391;SDS011;47261;52.892;5.738;2023-07-02T08:39:13;12.77;;;2.23;;
61391;SDS011;47261;52.892;5.738;2023-07-02T08:41:46;14.85;;;2.42;;
61391;SDS011;47261;52.892;5.738;2023-07-02T08:44:13;15.57;;;3.10;;
61391;SDS011;47261;52.892;5.738;2023-07-02T08:46:40;12.13;;;2.47;;
61391;SDS011;47261;52.892;5.738;2023-07-02T08:49:10;11.02;;;2.13;;
61391;SDS011;47261;52.892;5.738;2023-07-02T08:51:36;8.40;;;2.42;;
61391;SDS011;47261;52.892;5.738;2023-07-02T08:54:02;8.95;;;1.95;;
61391;SDS011;47261;52.892;5.738;2023-07-02T08:56:28;12.13;;;2.40;;
61391;SDS011;47261;52.892;5.738;2023-07-02T08:58:54;13.20;;;2.47;;
61391;SDS011;47261;52.892;5.738;2023-07-02T09:01:20;9.82;;;2.53;;
61391;SDS011;47261;52.892;5.738;2023-07-02T09:03:46;16.67;;;3.40;;
61391;SDS011;47261;52.892;5.738;2023-07-02T09:06:12;12.97;;;2.60;;
61391;SDS011;47261;52.892;5.738;2023-07-02T09:08:38;10.15;;;2.50;;
61391;SDS011;47261;52.892;5.738;2023-07-02T09:13:49;9.93;;;2.60;;
61391;SDS011;47261;52.892;5.738;2023-07-02T09:16:34;10.95;;;2.58;;
61391;SDS011;47261;52.892;5.738;2023-07-02T09:19:05;12.10;;;2.60;;
61391;SDS011;47261;52.892;5.738;2023-07-02T09:21:48;12.80;;;2.53;;
61391;SDS011;47261;52.892;5.738;2023-07-02T09:26:49;13.90;;;2.87;;
61391;SDS011;47261;52.892;5.738;2023-07-02T09:29:23;10.95;;;1.85;;
61391;SDS011;47261;52.892;5.738;2023-07-02T09:31:53;10.75;;;2.60;;
61391;SDS011;47261;52.892;5.738;2023-07-02T09:34:20;9.52;;;1.88;;
61391;SDS011;47261;52.892;5.738;2023-07-02T09:36:52;11.82;;;2.47;;
61391;SDS011;47261;52.892;5.738;2023-07-02T09:39:19;14.60;;;2.40;;
61391;SDS011;47261;52.892;5.738;2023-07-02T09:41:48;13.82;;;2.00;;
61391;SDS011;47261;52.892;5.738;2023-07-02T09:44:16;9.07;;;1.65;;
61391;SDS011;47261;52.892;5.738;2023-07-02T09:46:45;12.80;;;2.53;;
61391;SDS011;47261;52.892;5.738;2023-07-02T09:49:16;14.03;;;2.83;;
61391;SDS011;47261;52.892;5.738;2023-07-02T09:51:45;17.73;;;2.65;;
61391;SDS011;47261;52.892;5.738;2023-07-02T09:54:11;15.50;;;2.40;;
61391;SDS011;47261;52.892;5.738;2023-07-02T09:56:37;12.63;;;2.38;;
61391;SDS011;47261;52.892;5.738;2023-07-02T09:59:04;11.02;;;2.38;;
61391;SDS011;47261;52.892;5.738;2023-07-02T10:01:30;14.70;;;2.90;;
61391;SDS011;47261;52.892;5.738;2023-07-02T10:03:56;10.10;;;2.17;;
61391;SDS011;47261;52.892;5.738;2023-07-02T10:06:21;11.57;;;2.13;;
61391;SDS011;47261;52.892;5.738;2023-07-02T10:08:54;13.47;;;2.50;;
61391;SDS011;47261;52.892;5.738;2023-07-02T10:11:20;12.32;;;2.08;;
61391;SDS011;47261;52.892;5.738;2023-07-02T10:13:45;11.55;;;2.20;;
61391;SDS011;47261;52.892;5.738;2023-07-02T10:16:11;10.93;;;1.93;;
61391;SDS011;47261;52.892;5.738;2023-07-02T10:18:38;15.50;;;2.55;;
61391;SDS011;47261;52.892;5.738;2023-07-02T10:21:14;13.63;;;2.90;;
61391;SDS011;47261;52.892;5.738;2023-07-02T10:23:41;13.17;;;3.07;;
61391;SDS011;47261;52.892;5.738;2023-07-02T10:26:10;12.82;;;2.67;;
61391;SDS011;47261;52.892;5.738;2023-07-02T10:28:40;11.18;;;2.20;;
61391;SDS011;47261;52.892;5.738;2023-07-02T10:31:17;12.10;;;2.40;;
61391;SDS011;47261;52.892;5.738;2023-07-02T10:33:44;8.40;;;1.73;;
61391;SDS011;47261;52.892;5.738;2023-07-02T10:36:17;11.57;;;2.15;;
61391;SDS011;47261;52.892;5.738;2023-07-02T10:38:44;14.30;;;2.15;;
61391;SDS011;47261;52.892;5.738;2023-07-02T10:41:10;11.43;;;2.07;;
61391;SDS011;47261;52.892;5.738;2023-07-02T10:43:35;10.20;;;1.97;;
61391;SDS011;47261;52.892;5.738;2023-07-02T10:46:01;14.30;;;2.08;;
61391;SDS011;47261;52.892;5.738;2023-07-02T10:48:30;8.40;;;1.80;;
61391;SDS011;47261;52.892;5.738;2023-07-02T10:50:56;10.50;;;1.87;;
61391;SDS011;47261;52.892;5.738;2023-07-02T10:53:22;8.65;;;1.77;;
61391;SDS011;47261;52.892;5.738;2023-07-02T10:55:56;10.90;;;2.03;;
61391;SDS011;47261;52.892;5.738;2023-07-02T10:58:23;10.35;;;2.40;;
61391;SDS011;47261;52.892;5.738;2023-07-02T11:00:50;11.77;;;1.70;;
61391;SDS011;47261;52.892;5.738;2023-07-02T11:03:20;10.05;;;1.70;;
61391;SDS011;47261;52.892;5.738;2023-07-02T11:05:47;9.32;;;1.90;;
61391;SDS011;47261;52.892;5.738;2023-07-02T11:08:14;8.55;;;1.58;;
61391;SDS011;47261;52.892;5.738;2023-07-02T11:10:39;16.10;;;2.20;;
61391;SDS011;47261;52.892;5.738;2023-07-02T11:15:44;6.97;;;1.60;;
61391;SDS011;47261;52.892;5.738;2023-07-02T11:18:11;9.55;;;1.40;;
61391;SDS011;47261;52.892;5.738;2023-07-02T11:20:41;7.72;;;1.30;;
61391;SDS011;47261;52.892;5.738;2023-07-02T11:23:17;12.13;;;1.83;;
61391;SDS011;47261;52.892;5.738;2023-07-02T11:25:57;12.75;;;2.00;;
61391;SDS011;47261;52.892;5.738;2023-07-02T11:28:23;9.48;;;1.40;;
61391;SDS011;47261;52.892;5.738;2023-07-02T11:30:50;10.10;;;1.70;;
61391;SDS011;47261;52.892;5.738;2023-07-02T11:33:15;9.77;;;1.83;;
61391;SDS011;47261;52.892;5.738;2023-07-02T11:35:41;9.18;;;2.08;;
61391;SDS011;47261;52.892;5.738;2023-07-02T11:38:08;9.77;;;1.80;;
61391;SDS011;47261;52.892;5.738;2023-07-02T11:40:38;6.57;;;1.70;;
61391;SDS011;47261;52.892;5.738;2023-07-02T11:43:03;10.27;;;1.77;;
61391;SDS011;47261;52.892;5.738;2023-07-02T11:45:31;10.55;;;1.92;;
61391;SDS011;47261;52.892;5.738;2023-07-02T11:47:56;9.82;;;2.60;;
61391;SDS011;47261;52.892;5.738;2023-07-02T11:50:22;13.77;;;2.87;;
61391;SDS011;47261;52.892;5.738;2023-07-02T11:52:48;17.02;;;2.97;;
61391;SDS011;47261;52.892;5.738;2023-07-02T11:55:13;13.80;;;2.93;;
61391;SDS011;47261;52.892;5.738;2023-07-02T11:57:39;17.27;;;3.27;;
61391;SDS011;47261;52.892;5.738;2023-07-02T12:00:05;13.88;;;3.10;;
61391;SDS011;47261;52.892;5.738;2023-07-02T12:02:31;12.88;;;2.15;;
61391;SDS011;47261;52.892;5.738;2023-07-02T12:04:56;12.40;;;2.23;;
61391;SDS011;47261;52.892;5.738;2023-07-02T12:07:22;13.90;;;2.37;;
61391;SDS011;47261;52.892;5.738;2023-07-02T12:09:48;16.40;;;3.30;;
61391;SDS011;47261;52.892;5.738;2023-07-02T12:12:14;8.05;;;2.33;;
61391;SDS011;47261;52.892;5.738;2023-07-02T12:14:39;9.90;;;2.70;;
61391;SDS011;47261;52.892;5.738;2023-07-02T12:17:08;15.25;;;2.95;;
61391;SDS011;47261;52.892;5.738;2023-07-02T12:19:37;16.63;;;3.58;;
61391;SDS011;47261;52.892;5.738;2023-07-02T12:22:04;15.27;;;3.30;;
61391;SDS011;47261;52.892;5.738;2023-07-02T12:24:30;14.15;;;3.60;;
61391;SDS011;47261;52.892;5.738;2023-07-02T12:26:55;12.83;;;2.43;;
61391;SDS011;47261;52.892;5.738;2023-07-02T12:29:21;11.45;;;2.80;;
61391;SDS011;47261;52.892;5.738;2023-07-02T12:31:46;11.47;;;3.40;;
61391;SDS011;47261;52.892;5.738;2023-07-02T12:34:12;12.97;;;2.97;;
61391;SDS011;47261;52.892;5.738;2023-07-02T12:36:38;10.15;;;2.70;;
61391;SDS011;47261;52.892;5.738;2023-07-02T12:39:03;12.43;;;3.20;;
61391;SDS011;47261;52.892;5.738;2023-07-02T12:41:29;10.55;;;2.40;;
61391;SDS011;47261;52.892;5.738;2023-07-02T12:43:55;9.00;;;2.40;;
61391;SDS011;47261;52.892;5.738;2023-07-02T12:46:21;12.32;;;3.05;;
61391;SDS011;47261;52.892;5.738;2023-07-02T12:48:47;17.63;;;2.75;;
61391;SDS011;47261;52.892;5.738;2023-07-02T12:51:13;10.60;;;2.27;;
61391;SDS011;47261;52.892;5.738;2023-07-02T12:53:40;10.38;;;2.67;;
61391;SDS011;47261;52.892;5.738;2023-07-02T12:56:05;13.05;;;3.40;;
61391;SDS011;47261;52.892;5.738;2023-07-02T12:58:31;13.83;;;3.10;;
61391;SDS011;47261;52.892;5.738;2023-07-02T13:00:57;12.68;;;2.85;;
61391;SDS011;47261;52.892;5.738;2023-07-02T13:03:23;12.63;;;3.43;;
61391;SDS011;47261;52.892;5.738;2023-07-02T13:05:49;20.75;;;3.60;;
61391;SDS011;47261;52.892;5.738;2023-07-02T13:08:15;12.18;;;2.90;;
61391;SDS011;47261;52.892;5.738;2023-07-02T13:10:41;10.30;;;3.50;;
61391;SDS011;47261;52.892;5.738;2023-07-02T13:13:07;12.55;;;3.22;;
61391;SDS011;47261;52.892;5.738;2023-07-02T13:15:32;15.63;;;3.90;;
61391;SDS011;47261;52.892;5.738;2023-07-02T13:17:59;8.02;;;2.35;;
61391;SDS011;47261;52.892;5.738;2023-07-02T13:20:25;17.58;;;3.15;;
61391;SDS011;47261;52.892;5.738;2023-07-02T13:22:51;9.00;;;3.20;;
61391;SDS011;47261;52.892;5.738;2023-07-02T13:25:17;11.10;;;2.95;;
61391;SDS011;47261;52.892;5.738;2023-07-02T13:27:43;13.88;;;2.97;;
61391;SDS011;47261;52.892;5.738;2023-07-02T13:30:08;14.03;;;3.40;;
61391;SDS011;47261;52.892;5.738;2023-07-02T13:32:34;9.75;;;2.38;;
61391;SDS011;47261;52.892;5.738;2023-07-02T13:35:00;9.67;;;2.63;;
61391;SDS011;47261;52.892;5.738;2023-07-02T13:37:26;8.70;;;2.45;;
61391;SDS011;47261;52.892;5.738;2023-07-02T13:39:51;11.07;;;2.90;;
61391;SDS011;47261;52.892;5.738;2023-07-02T13:42:17;10.20;;;2.60;;
61391;SDS011;47261;52.892;5.738;2023-07-02T13:44:43;13.33;;;3.43;;
61391;SDS011;47261;52.892;5.738;2023-07-02T13:47:08;10.30;;;2.45;;
61391;SDS011;47261;52.892;5.738;2023-07-02T13:49:34;9.33;;;2.43;;
61391;SDS011;47261;52.892;5.738;2023-07-02T13:52:00;12.35;;;2.88;;
61391;SDS011;47261;52.892;5.738;2023-07-02T13:54:26;14.80;;;3.83;;
61391;SDS011;47261;52.892;5.738;2023-07-02T13:56:52;11.15;;;2.15;;
61391;SDS011;47261;52.892;5.738;2023-07-02T13:59:18;7.80;;;2.28;;
61391;SDS011;47261;52.892;5.738;2023-07-02T14:01:44;10.87;;;2.80;;
61391;SDS011;47261;52.892;5.738;2023-07-02T14:04:11;26.30;;;2.92;;
61391;SDS011;47261;52.892;5.738;2023-07-02T14:06:37;9.95;;;2.50;;
61391;SDS011;47261;52.892;5.738;2023-07-02T14:09:03;12.27;;;3.30;;
61391;SDS011;47261;52.892;5.738;2023-07-02T14:11:29;10.02;;;2.42;;
61391;SDS011;47261;52.892;5.738;2023-07-02T14:13:55;9.32;;;2.97;;
61391;SDS011;47261;52.892;5.738;2023-07-02T14:16:20;10.73;;;3.30;;
61391;SDS011;47261;52.892;5.738;2023-07-02T14:18:47;11.20;;;2.87;;
61391;SDS011;47261;52.892;5.738;2023-07-02T14:21:13;10.57;;;2.50;;
61391;SDS011;47261;52.892;5.738;2023-07-02T14:23:39;8.65;;;2.70;;
61391;SDS011;47261;52.892;5.738;2023-07-02T14:26:04;11.85;;;2.67;;
61391;SDS011;47261;52.892;5.738;2023-07-02T14:28:30;10.67;;;2.47;;
61391;SDS011;47261;52.892;5.738;2023-07-02T14:30:57;11.00;;;2.50;;
61391;SDS011;47261;52.892;5.738;2023-07-02T14:33:27;9.68;;;2.10;;
61391;SDS011;47261;52.892;5.738;2023-07-02T14:35:53;9.83;;;2.00;;
61391;SDS011;47261;52.892;5.738;2023-07-02T14:38:19;9.40;;;2.33;;
61391;SDS011;47261;52.892;5.738;2023-07-02T14:40:47;10.40;;;2.85;;